sensor_id;sensor_type;location;lat;lon;timestamp;P1;durP1;ratioP1;P2;durP2;ratioP2
13269;SDS011;6703;51.994;7.570;2023-02-28T00:01:09;14.52;;;5.28;;
13269;SDS011;6703;51.994;7.570;2023-02-28T00:03:37;11.98;;;5.20;;
13269;SDS011;6703;51.994;7.570;2023-02-28T00:06:05;13.43;;;5.55;;
13269;SDS011;6703;51.994;7.570;2023-02-28T00:08:33;15.63;;;5.40;;
13269;SDS011;6703;51.994;7.570;2023-02-28T00:11:01;10.98;;;4.95;;
13269;SDS011;6703;51.994;7.570;2023-02-28T00:13:31;11.50;;;4.90;;
13269;SDS011;6703;51.994;7.570;2023-02-28T00:16:01;15.93;;;5.47;;
13269;SDS011;6703;51.994;7.570;2023-02-28T00:18:30;15.07;;;5.60;;
13269;SDS011;6703;51.994;7.570;2023-02-28T00:20:58;10.82;;;5.75;;
13269;SDS011;6703;51.994;7.570;2023-02-28T00:23:26;13.90;;;6.10;;
13269;SDS011;6703;51.994;7.570;2023-02-28T00:25:55;15.98;;;5.93;;
13269;SDS011;6703;51.994;7.570;2023-02-28T00:28:22;17.80;;;5.75;;
13269;SDS011;6703;51.994;7.570;2023-02-28T00:30:52;16.57;;;5.37;;
13269;SDS011;6703;51.994;7.570;2023-02-28T00:33:20;12.02;;;5.30;;
13269;SDS011;6703;51.994;7.570;2023-02-28T00:35:48;15.43;;;5.43;;
13269;SDS011;6703;51.994;7.570;2023-02-28T00:38:15;12.02;;;5.38;;
13269;SDS011;6703;51.994;7.570;2023-02-28T00:40:43;14.53;;;5.43;;
13269;SDS011;6703;51.994;7.570;2023-02-28T00:43:11;14.43;;;5.40;;
13269;SDS011;6703;51.994;7.570;2023-02-28T00:45:38;15.90;;;4.87;;
13269;SDS011;6703;51.994;7.570;2023-02-28T00:48:07;13.75;;;4.97;;
13269;SDS011;6703;51.994;7.570;2023-02-28T00:50:35;17.88;;;4.90;;
13269;SDS011;6703;51.994;7.570;2023-02-28T00:53:03;19.50;;;5.30;;
13269;SDS011;6703;51.994;7.570;2023-02-28T00:55:30;13.30;;;5.03;;
13269;SDS011;6703;51.994;7.570;2023-02-28T00:57:58;15.83;;;5.23;;
13269;SDS011;6703;51.994;7.570;2023-02-28T01:00:26;16.25;;;5.13;;
13269;SDS011;6703;51.994;7.570;2023-02-28T01:02:54;16.50;;;5.40;;
13269;SDS011;6703;51.994;7.570;2023-02-28T01:05:23;13.48;;;5.30;;
13269;SDS011;6703;51.994;7.570;2023-02-28T01:07:50;10.50;;;5.10;;
13269;SDS011;6703;51.994;7.570;2023-02-28T01:10:18;14.98;;;5.65;;
13269;SDS011;6703;51.994;7.570;2023-02-28T01:12:47;16.85;;;5.38;;
13269;SDS011;6703;51.994;7.570;2023-02-28T01:15:14;13.13;;;5.10;;
13269;SDS011;6703;51.994;7.570;2023-02-28T01:17:42;12.67;;;5.00;;
13269;SDS011;6703;51.994;7.570;2023-02-28T01:20:10;17.38;;;5.30;;
13269;SDS011;6703;51.994;7.570;2023-02-28T01:22:39;15.07;;;5.20;;
13269;SDS011;6703;51.994;7.570;2023-02-28T01:25:07;14.18;;;5.38;;
13269;SDS011;6703;51.994;7.570;2023-02-28T01:27:35;18.92;;;5.35;;
13269;SDS011;6703;51.994;7.570;2023-02-28T01:30:03;15.00;;;5.07;;
13269;SDS011;6703;51.994;7.570;2023-02-28T01:32:31;9.75;;;5.05;;
13269;SDS011;6703;51.994;7.570;2023-02-28T01:34:59;12.47;;;5.10;;
13269;SDS011;6703;51.994;7.570;2023-02-28T01:37:27;10.40;;;4.22;;
13269;SDS011;6703;51.994;7.570;2023-02-28T01:39:56;11.52;;;4.65;;
13269;SDS011;6703;51.994;7.570;2023-02-28T01:42:23;10.90;;;4.85;;
13269;SDS011;6703;51.994;7.570;2023-02-28T01:44:57;14.05;;;4.70;;
13269;SDS011;6703;51.994;7.570;2023-02-28T01:47:28;12.45;;;4.65;;
13269;SDS011;6703;51.994;7.570;2023-02-28T01:49:59;13.40;;;4.63;;
13269;SDS011;6703;51.994;7.570;2023-02-28T01:52:28;12.60;;;4.30;;
13269;SDS011;6703;51.994;7.570;2023-02-28T01:54:58;13.32;;;4.68;;
13269;SDS011;6703;51.994;7.570;2023-02-28T01:57:28;11.80;;;4.65;;
13269;SDS011;6703;51.994;7.570;2023-02-28T02:00:05;9.95;;;4.05;;
13269;SDS011;6703;51.994;7.570;2023-02-28T02:02:35;11.60;;;4.47;;
13269;SDS011;6703;51.994;7.570;2023-02-28T02:05:04;11.95;;;4.63;;
13269;SDS011;6703;51.994;7.570;2023-02-28T02:07:34;11.05;;;4.60;;
13269;SDS011;6703;51.994;7.570;2023-02-28T02:10:06;15.55;;;4.57;;
13269;SDS011;6703;51.994;7.570;2023-02-28T02:12:43;12.60;;;4.85;;
13269;SDS011;6703;51.994;7.570;2023-02-28T02:15:19;14.52;;;5.28;;
13269;SDS011;6703;51.994;7.570;2023-02-28T02:17:50;13.13;;;4.70;;
13269;SDS011;6703;51.994;7.570;2023-02-28T02:20:43;16.02;;;5.70;;
13269;SDS011;6703;51.994;7.570;2023-02-28T02:23:30;26.10;;;7.53;;
13269;SDS011;6703;51.994;7.570;2023-02-28T02:26:06;11.98;;;4.88;;
13269;SDS011;6703;51.994;7.570;2023-02-28T02:28:55;12.18;;;4.90;;
13269;SDS011;6703;51.994;7.570;2023-02-28T02:31:55;11.32;;;4.63;;
13269;SDS011;6703;51.994;7.570;2023-02-28T02:34:39;15.35;;;4.78;;
13269;SDS011;6703;51.994;7.570;2023-02-28T02:37:12;16.45;;;5.28;;
13269;SDS011;6703;51.994;7.570;2023-02-28T02:39:47;14.68;;;4.90;;
13269;SDS011;6703;51.994;7.570;2023-02-28T02:42:19;12.40;;;5.18;;
13269;SDS011;6703;51.994;7.570;2023-02-28T02:44:50;12.20;;;4.55;;
13269;SDS011;6703;51.994;7.570;2023-02-28T02:47:21;13.10;;;4.95;;
13269;SDS011;6703;51.994;7.570;2023-02-28T02:49:53;13.45;;;5.18;;
13269;SDS011;6703;51.994;7.570;2023-02-28T02:52:24;10.95;;;4.82;;
13269;SDS011;6703;51.994;7.570;2023-02-28T02:54:57;19.13;;;5.28;;
13269;SDS011;6703;51.994;7.570;2023-02-28T02:57:29;12.80;;;5.43;;
13269;SDS011;6703;51.994;7.570;2023-02-28T02:59:58;18.53;;;5.83;;
13269;SDS011;6703;51.994;7.570;2023-02-28T03:02:27;14.13;;;5.72;;
13269;SDS011;6703;51.994;7.570;2023-02-28T03:05:03;15.73;;;5.53;;
13269;SDS011;6703;51.994;7.570;2023-02-28T03:07:32;13.95;;;5.13;;
13269;SDS011;6703;51.994;7.570;2023-02-28T03:10:00;14.93;;;5.70;;
13269;SDS011;6703;51.994;7.570;2023-02-28T03:12:30;14.40;;;5.63;;
13269;SDS011;6703;51.994;7.570;2023-02-28T03:15:03;16.35;;;5.80;;
13269;SDS011;6703;51.994;7.570;2023-02-28T03:17:42;11.85;;;5.13;;
13269;SDS011;6703;51.994;7.570;2023-02-28T03:20:21;15.30;;;6.00;;
13269;SDS011;6703;51.994;7.570;2023-02-28T03:22:57;21.85;;;6.18;;
13269;SDS011;6703;51.994;7.570;2023-02-28T03:25:30;16.97;;;5.93;;
13269;SDS011;6703;51.994;7.570;2023-02-28T03:28:02;18.80;;;6.55;;
13269;SDS011;6703;51.994;7.570;2023-02-28T03:30:35;16.13;;;6.93;;
13269;SDS011;6703;51.994;7.570;2023-02-28T03:33:06;19.00;;;6.35;;
13269;SDS011;6703;51.994;7.570;2023-02-28T03:35:38;12.15;;;5.88;;
13269;SDS011;6703;51.994;7.570;2023-02-28T03:38:08;13.48;;;6.43;;
13269;SDS011;6703;51.994;7.570;2023-02-28T03:40:41;16.60;;;5.95;;
13269;SDS011;6703;51.994;7.570;2023-02-28T03:43:13;18.23;;;6.30;;
13269;SDS011;6703;51.994;7.570;2023-02-28T03:45:44;16.42;;;6.55;;
13269;SDS011;6703;51.994;7.570;2023-02-28T03:48:15;16.02;;;6.35;;
13269;SDS011;6703;51.994;7.570;2023-02-28T03:50:47;17.70;;;6.15;;
13269;SDS011;6703;51.994;7.570;2023-02-28T03:53:17;15.95;;;6.32;;
13269;SDS011;6703;51.994;7.570;2023-02-28T03:55:51;15.75;;;6.32;;
13269;SDS011;6703;51.994;7.570;2023-02-28T03:58:24;17.17;;;6.55;;
13269;SDS011;6703;51.994;7.570;2023-02-28T04:00:57;17.88;;;6.20;;
13269;SDS011;6703;51.994;7.570;2023-02-28T04:03:34;13.73;;;5.80;;
13269;SDS011;6703;51.994;7.570;2023-02-28T04:06:04;19.20;;;6.53;;
13269;SDS011;6703;51.994;7.570;2023-02-28T04:08:33;15.02;;;6.03;;
13269;SDS011;6703;51.994;7.570;2023-02-28T04:11:01;12.25;;;5.40;;
13269;SDS011;6703;51.994;7.570;2023-02-28T04:13:32;15.32;;;5.90;;
13269;SDS011;6703;51.994;7.570;2023-02-28T04:16:00;14.52;;;5.68;;
13269;SDS011;6703;51.994;7.570;2023-02-28T04:18:28;14.75;;;6.13;;
13269;SDS011;6703;51.994;7.570;2023-02-28T04:20:59;14.18;;;5.80;;
13269;SDS011;6703;51.994;7.570;2023-02-28T04:23:28;13.07;;;5.68;;
13269;SDS011;6703;51.994;7.570;2023-02-28T04:25:57;13.85;;;5.47;;
13269;SDS011;6703;51.994;7.570;2023-02-28T04:28:25;16.38;;;5.65;;
13269;SDS011;6703;51.994;7.570;2023-02-28T04:30:54;10.88;;;5.20;;
13269;SDS011;6703;51.994;7.570;2023-02-28T04:33:22;12.83;;;5.33;;
13269;SDS011;6703;51.994;7.570;2023-02-28T04:35:57;15.45;;;6.20;;
13269;SDS011;6703;51.994;7.570;2023-02-28T04:38:26;12.27;;;5.20;;
13269;SDS011;6703;51.994;7.570;2023-02-28T04:40:57;13.10;;;5.17;;
13269;SDS011;6703;51.994;7.570;2023-02-28T04:43:25;14.95;;;5.43;;
13269;SDS011;6703;51.994;7.570;2023-02-28T04:45:53;14.65;;;5.40;;
13269;SDS011;6703;51.994;7.570;2023-02-28T04:48:23;12.82;;;5.47;;
13269;SDS011;6703;51.994;7.570;2023-02-28T04:50:51;12.45;;;5.78;;
13269;SDS011;6703;51.994;7.570;2023-02-28T04:53:19;14.70;;;5.65;;
13269;SDS011;6703;51.994;7.570;2023-02-28T04:55:47;11.00;;;5.10;;
13269;SDS011;6703;51.994;7.570;2023-02-28T04:58:16;13.80;;;5.40;;
13269;SDS011;6703;51.994;7.570;2023-02-28T05:00:43;16.55;;;5.53;;
13269;SDS011;6703;51.994;7.570;2023-02-28T05:03:11;16.83;;;5.70;;
13269;SDS011;6703;51.994;7.570;2023-02-28T05:05:39;13.57;;;5.07;;
13269;SDS011;6703;51.994;7.570;2023-02-28T05:08:07;13.48;;;5.30;;
13269;SDS011;6703;51.994;7.570;2023-02-28T05:10:36;13.95;;;5.32;;
13269;SDS011;6703;51.994;7.570;2023-02-28T05:13:04;12.23;;;5.47;;
13269;SDS011;6703;51.994;7.570;2023-02-28T05:15:33;10.70;;;4.87;;
13269;SDS011;6703;51.994;7.570;2023-02-28T05:18:01;13.10;;;4.78;;
13269;SDS011;6703;51.994;7.570;2023-02-28T05:20:28;13.73;;;5.60;;
13269;SDS011;6703;51.994;7.570;2023-02-28T05:22:56;11.18;;;4.78;;
13269;SDS011;6703;51.994;7.570;2023-02-28T05:25:24;9.30;;;4.32;;
13269;SDS011;6703;51.994;7.570;2023-02-28T05:27:52;12.05;;;5.10;;
13269;SDS011;6703;51.994;7.570;2023-02-28T05:30:20;12.70;;;5.15;;
13269;SDS011;6703;51.994;7.570;2023-02-28T05:32:51;20.05;;;5.10;;
13269;SDS011;6703;51.994;7.570;2023-02-28T05:35:19;10.50;;;4.68;;
13269;SDS011;6703;51.994;7.570;2023-02-28T05:37:46;11.97;;;4.90;;
13269;SDS011;6703;51.994;7.570;2023-02-28T05:40:14;13.50;;;4.90;;
13269;SDS011;6703;51.994;7.570;2023-02-28T05:42:42;16.40;;;5.43;;
13269;SDS011;6703;51.994;7.570;2023-02-28T05:45:10;13.88;;;5.00;;
13269;SDS011;6703;51.994;7.570;2023-02-28T05:47:41;15.13;;;5.47;;
13269;SDS011;6703;51.994;7.570;2023-02-28T05:50:10;10.57;;;5.25;;
13269;SDS011;6703;51.994;7.570;2023-02-28T05:52:38;11.93;;;4.80;;
13269;SDS011;6703;51.994;7.570;2023-02-28T05:55:06;13.60;;;6.07;;
13269;SDS011;6703;51.994;7.570;2023-02-28T05:57:34;11.20;;;4.65;;
13269;SDS011;6703;51.994;7.570;2023-02-28T06:00:02;13.95;;;5.30;;
13269;SDS011;6703;51.994;7.570;2023-02-28T06:02:31;11.60;;;5.13;;
13269;SDS011;6703;51.994;7.570;2023-02-28T06:04:58;15.10;;;5.55;;
13269;SDS011;6703;51.994;7.570;2023-02-28T06:07:27;20.92;;;8.85;;
13269;SDS011;6703;51.994;7.570;2023-02-28T06:09:55;16.25;;;6.72;;
13269;SDS011;6703;51.994;7.570;2023-02-28T06:12:23;14.48;;;7.18;;
13269;SDS011;6703;51.994;7.570;2023-02-28T06:14:50;23.20;;;10.10;;
13269;SDS011;6703;51.994;7.570;2023-02-28T06:17:18;22.17;;;9.73;;
13269;SDS011;6703;51.994;7.570;2023-02-28T06:19:46;30.80;;;12.07;;
13269;SDS011;6703;51.994;7.570;2023-02-28T06:22:14;27.15;;;12.63;;
13269;SDS011;6703;51.994;7.570;2023-02-28T06:24:43;35.23;;;14.03;;
13269;SDS011;6703;51.994;7.570;2023-02-28T06:27:11;34.17;;;13.47;;
13269;SDS011;6703;51.994;7.570;2023-02-28T06:29:38;36.83;;;14.45;;
13269;SDS011;6703;51.994;7.570;2023-02-28T06:32:06;42.00;;;16.10;;
13269;SDS011;6703;51.994;7.570;2023-02-28T06:34:34;39.65;;;17.45;;
13269;SDS011;6703;51.994;7.570;2023-02-28T06:37:03;45.83;;;18.42;;
13269;SDS011;6703;51.994;7.570;2023-02-28T06:39:30;44.25;;;18.75;;
13269;SDS011;6703;51.994;7.570;2023-02-28T06:42:00;47.53;;;18.27;;
13269;SDS011;6703;51.994;7.570;2023-02-28T06:44:27;40.25;;;15.70;;
13269;SDS011;6703;51.994;7.570;2023-02-28T06:47:01;30.60;;;12.85;;
13269;SDS011;6703;51.994;7.570;2023-02-28T06:49:30;34.92;;;12.82;;
13269;SDS011;6703;51.994;7.570;2023-02-28T06:51:58;28.98;;;9.90;;
13269;SDS011;6703;51.994;7.570;2023-02-28T06:54:26;23.90;;;8.68;;
13269;SDS011;6703;51.994;7.570;2023-02-28T06:56:54;22.33;;;7.60;;
13269;SDS011;6703;51.994;7.570;2023-02-28T06:59:23;15.80;;;6.85;;
13269;SDS011;6703;51.994;7.570;2023-02-28T07:01:51;12.65;;;5.85;;
13269;SDS011;6703;51.994;7.570;2023-02-28T07:04:19;16.15;;;5.78;;
13269;SDS011;6703;51.994;7.570;2023-02-28T07:06:47;12.90;;;5.82;;
13269;SDS011;6703;51.994;7.570;2023-02-28T07:09:14;12.98;;;5.38;;
13269;SDS011;6703;51.994;7.570;2023-02-28T07:11:42;12.85;;;5.75;;
13269;SDS011;6703;51.994;7.570;2023-02-28T07:14:10;13.67;;;5.67;;
13269;SDS011;6703;51.994;7.570;2023-02-28T07:16:39;14.93;;;6.03;;
13269;SDS011;6703;51.994;7.570;2023-02-28T07:19:06;17.42;;;6.28;;
13269;SDS011;6703;51.994;7.570;2023-02-28T07:21:34;17.53;;;5.73;;
13269;SDS011;6703;51.994;7.570;2023-02-28T07:24:02;10.35;;;4.65;;
13269;SDS011;6703;51.994;7.570;2023-02-28T07:26:30;9.27;;;4.32;;
13269;SDS011;6703;51.994;7.570;2023-02-28T07:29:00;13.10;;;4.85;;
13269;SDS011;6703;51.994;7.570;2023-02-28T07:31:28;12.20;;;4.90;;
13269;SDS011;6703;51.994;7.570;2023-02-28T07:33:58;10.25;;;4.35;;
13269;SDS011;6703;51.994;7.570;2023-02-28T07:36:25;7.63;;;3.78;;
13269;SDS011;6703;51.994;7.570;2023-02-28T07:38:53;12.68;;;4.88;;
13269;SDS011;6703;51.994;7.570;2023-02-28T07:41:21;10.20;;;4.80;;
13269;SDS011;6703;51.994;7.570;2023-02-28T07:43:52;8.75;;;4.45;;
13269;SDS011;6703;51.994;7.570;2023-02-28T07:46:21;10.88;;;4.68;;
13269;SDS011;6703;51.994;7.570;2023-02-28T07:48:48;10.15;;;4.57;;
13269;SDS011;6703;51.994;7.570;2023-02-28T07:51:18;9.40;;;4.28;;
13269;SDS011;6703;51.994;7.570;2023-02-28T07:53:45;7.55;;;3.72;;
13269;SDS011;6703;51.994;7.570;2023-02-28T07:56:13;8.73;;;4.22;;
13269;SDS011;6703;51.994;7.570;2023-02-28T07:58:41;12.95;;;3.83;;
13269;SDS011;6703;51.994;7.570;2023-02-28T08:01:09;11.07;;;4.10;;
13269;SDS011;6703;51.994;7.570;2023-02-28T08:03:38;9.60;;;3.80;;
13269;SDS011;6703;51.994;7.570;2023-02-28T08:06:07;8.63;;;3.83;;
13269;SDS011;6703;51.994;7.570;2023-02-28T08:08:37;11.52;;;4.07;;
13269;SDS011;6703;51.994;7.570;2023-02-28T08:11:05;7.90;;;3.70;;
13269;SDS011;6703;51.994;7.570;2023-02-28T08:13:33;9.27;;;4.10;;
13269;SDS011;6703;51.994;7.570;2023-02-28T08:16:01;8.73;;;3.75;;
13269;SDS011;6703;51.994;7.570;2023-02-28T08:18:29;12.15;;;4.20;;
13269;SDS011;6703;51.994;7.570;2023-02-28T08:20:57;6.72;;;3.75;;
13269;SDS011;6703;51.994;7.570;2023-02-28T08:23:25;8.32;;;3.83;;
13269;SDS011;6703;51.994;7.570;2023-02-28T08:25:54;9.07;;;4.18;;
13269;SDS011;6703;51.994;7.570;2023-02-28T08:28:23;8.93;;;3.90;;
13269;SDS011;6703;51.994;7.570;2023-02-28T08:30:52;8.02;;;4.00;;
13269;SDS011;6703;51.994;7.570;2023-02-28T08:33:21;8.75;;;4.05;;
13269;SDS011;6703;51.994;7.570;2023-02-28T08:35:51;7.07;;;4.05;;
13269;SDS011;6703;51.994;7.570;2023-02-28T08:38:20;8.23;;;3.72;;
13269;SDS011;6703;51.994;7.570;2023-02-28T08:40:47;10.18;;;3.67;;
13269;SDS011;6703;51.994;7.570;2023-02-28T08:43:17;8.20;;;3.53;;
13269;SDS011;6703;51.994;7.570;2023-02-28T08:45:44;8.75;;;4.07;;
13269;SDS011;6703;51.994;7.570;2023-02-28T08:48:12;12.98;;;3.85;;
13269;SDS011;6703;51.994;7.570;2023-02-28T08:50:40;7.47;;;3.80;;
13269;SDS011;6703;51.994;7.570;2023-02-28T08:53:09;12.07;;;3.80;;
13269;SDS011;6703;51.994;7.570;2023-02-28T08:55:36;6.55;;;3.05;;
13269;SDS011;6703;51.994;7.570;2023-02-28T08:58:04;7.40;;;3.40;;
13269;SDS011;6703;51.994;7.570;2023-02-28T09:00:33;10.30;;;3.50;;
13269;SDS011;6703;51.994;7.570;2023-02-28T09:03:04;7.63;;;3.05;;
13269;SDS011;6703;51.994;7.570;2023-02-28T09:05:31;10.07;;;3.63;;
13269;SDS011;6703;51.994;7.570;2023-02-28T09:07:59;5.75;;;2.85;;
13269;SDS011;6703;51.994;7.570;2023-02-28T09:10:26;7.93;;;3.60;;
13269;SDS011;6703;51.994;7.570;2023-02-28T09:12:54;8.68;;;3.33;;
13269;SDS011;6703;51.994;7.570;2023-02-28T09:15:22;7.18;;;3.25;;
13269;SDS011;6703;51.994;7.570;2023-02-28T09:17:51;12.23;;;3.43;;
13269;SDS011;6703;51.994;7.570;2023-02-28T09:20:19;6.13;;;2.90;;
13269;SDS011;6703;51.994;7.570;2023-02-28T09:22:47;8.57;;;3.50;;
13269;SDS011;6703;51.994;7.570;2023-02-28T09:25:14;16.03;;;4.57;;
13269;SDS011;6703;51.994;7.570;2023-02-28T09:27:42;40.03;;;8.82;;
13269;SDS011;6703;51.994;7.570;2023-02-28T09:30:12;33.90;;;8.18;;
13269;SDS011;6703;51.994;7.570;2023-02-28T09:32:40;33.45;;;7.85;;
13269;SDS011;6703;51.994;7.570;2023-02-28T09:35:10;31.13;;;7.50;;
13269;SDS011;6703;51.994;7.570;2023-02-28T09:37:40;26.55;;;5.97;;
13269;SDS011;6703;51.994;7.570;2023-02-28T09:40:09;30.48;;;7.03;;
13269;SDS011;6703;51.994;7.570;2023-02-28T09:42:37;23.02;;;5.18;;
13269;SDS011;6703;51.994;7.570;2023-02-28T09:45:21;14.15;;;3.28;;
13269;SDS011;6703;51.994;7.570;2023-02-28T09:47:52;7.40;;;2.20;;
13269;SDS011;6703;51.994;7.570;2023-02-28T09:50:29;5.85;;;1.60;;
13269;SDS011;6703;51.994;7.570;2023-02-28T09:52:59;4.43;;;1.40;;
13269;SDS011;6703;51.994;7.570;2023-02-28T09:55:30;4.18;;;0.90;;
13269;SDS011;6703;51.994;7.570;2023-02-28T09:58:11;1.97;;;1.03;;
13269;SDS011;6703;51.994;7.570;2023-02-28T10:00:46;6.10;;;1.70;;
13269;SDS011;6703;51.994;7.570;2023-02-28T10:03:23;9.35;;;2.10;;
13269;SDS011;6703;51.994;7.570;2023-02-28T10:05:56;4.20;;;1.50;;
13269;SDS011;6703;51.994;7.570;2023-02-28T10:08:30;3.28;;;1.23;;
13269;SDS011;6703;51.994;7.570;2023-02-28T10:11:01;4.90;;;1.38;;
13269;SDS011;6703;51.994;7.570;2023-02-28T10:13:32;5.63;;;1.33;;
13269;SDS011;6703;51.994;7.570;2023-02-28T10:16:03;2.72;;;1.20;;
13269;SDS011;6703;51.994;7.570;2023-02-28T10:18:39;2.15;;;0.98;;
13269;SDS011;6703;51.994;7.570;2023-02-28T10:21:15;3.05;;;1.25;;
13269;SDS011;6703;51.994;7.570;2023-02-28T10:23:46;1.90;;;1.03;;
13269;SDS011;6703;51.994;7.570;2023-02-28T10:26:16;2.95;;;1.10;;
13269;SDS011;6703;51.994;7.570;2023-02-28T10:28:45;4.88;;;1.10;;
13269;SDS011;6703;51.994;7.570;2023-02-28T10:31:14;3.77;;;1.10;;
13269;SDS011;6703;51.994;7.570;2023-02-28T10:33:44;3.00;;;1.02;;
13269;SDS011;6703;51.994;7.570;2023-02-28T10:36:12;2.05;;;1.10;;
13269;SDS011;6703;51.994;7.570;2023-02-28T10:38:44;4.70;;;1.20;;
13269;SDS011;6703;51.994;7.570;2023-02-28T10:41:13;5.00;;;1.40;;
13269;SDS011;6703;51.994;7.570;2023-02-28T10:43:43;2.95;;;1.38;;
13269;SDS011;6703;51.994;7.570;2023-02-28T10:46:13;1.85;;;0.98;;
13269;SDS011;6703;51.994;7.570;2023-02-28T10:49:00;1.80;;;1.00;;
13269;SDS011;6703;51.994;7.570;2023-02-28T10:51:38;3.00;;;1.20;;
13269;SDS011;6703;51.994;7.570;2023-02-28T10:54:14;4.30;;;1.20;;
13269;SDS011;6703;51.994;7.570;2023-02-28T10:56:42;2.47;;;1.20;;
13269;SDS011;6703;51.994;7.570;2023-02-28T10:59:23;4.55;;;1.50;;
13269;SDS011;6703;51.994;7.570;2023-02-28T11:01:55;4.45;;;1.08;;
13269;SDS011;6703;51.994;7.570;2023-02-28T11:04:32;3.42;;;1.23;;
13269;SDS011;6703;51.994;7.570;2023-02-28T11:07:14;3.00;;;1.15;;
13269;SDS011;6703;51.994;7.570;2023-02-28T11:09:48;2.60;;;1.33;;
13269;SDS011;6703;51.994;7.570;2023-02-28T11:12:22;4.03;;;1.23;;
13269;SDS011;6703;51.994;7.570;2023-02-28T11:14:52;5.20;;;1.60;;
13269;SDS011;6703;51.994;7.570;2023-02-28T11:17:23;1.77;;;1.00;;
13269;SDS011;6703;51.994;7.570;2023-02-28T11:19:53;2.15;;;0.98;;
13269;SDS011;6703;51.994;7.570;2023-02-28T11:22:24;2.33;;;1.10;;
13269;SDS011;6703;51.994;7.570;2023-02-28T11:24:55;1.90;;;1.00;;
13269;SDS011;6703;51.994;7.570;2023-02-28T11:27:40;3.22;;;0.90;;
13269;SDS011;6703;51.994;7.570;2023-02-28T11:30:22;2.55;;;1.13;;
13269;SDS011;6703;51.994;7.570;2023-02-28T11:32:51;2.10;;;1.00;;
13269;SDS011;6703;51.994;7.570;2023-02-28T11:35:21;5.00;;;1.27;;
13269;SDS011;6703;51.994;7.570;2023-02-28T11:37:56;2.15;;;1.20;;
13269;SDS011;6703;51.994;7.570;2023-02-28T11:40:28;3.25;;;1.17;;
13269;SDS011;6703;51.994;7.570;2023-02-28T11:43:05;3.22;;;1.50;;
13269;SDS011;6703;51.994;7.570;2023-02-28T11:45:41;4.07;;;1.80;;
13269;SDS011;6703;51.994;7.570;2023-02-28T11:48:14;4.40;;;1.25;;
13269;SDS011;6703;51.994;7.570;2023-02-28T11:50:47;7.00;;;2.92;;
13269;SDS011;6703;51.994;7.570;2023-02-28T11:53:28;3.22;;;1.23;;
13269;SDS011;6703;51.994;7.570;2023-02-28T11:56:08;2.53;;;1.02;;
13269;SDS011;6703;51.994;7.570;2023-02-28T11:58:41;3.00;;;0.80;;
13269;SDS011;6703;51.994;7.570;2023-02-28T12:01:19;1.97;;;1.10;;
13269;SDS011;6703;51.994;7.570;2023-02-28T12:03:56;3.17;;;1.10;;
13269;SDS011;6703;51.994;7.570;2023-02-28T12:06:28;1.83;;;1.20;;
13269;SDS011;6703;51.994;7.570;2023-02-28T12:09:04;2.03;;;1.30;;
13269;SDS011;6703;51.994;7.570;2023-02-28T12:11:44;3.00;;;1.17;;
13269;SDS011;6703;51.994;7.570;2023-02-28T12:14:30;3.47;;;1.27;;
13269;SDS011;6703;51.994;7.570;2023-02-28T12:17:17;2.20;;;1.02;;
13269;SDS011;6703;51.994;7.570;2023-02-28T12:19:53;2.10;;;1.10;;
13269;SDS011;6703;51.994;7.570;2023-02-28T12:22:30;3.20;;;1.38;;
13269;SDS011;6703;51.994;7.570;2023-02-28T12:25:02;2.53;;;1.23;;
13269;SDS011;6703;51.994;7.570;2023-02-28T12:27:44;4.47;;;1.30;;
13269;SDS011;6703;51.994;7.570;2023-02-28T12:30:15;2.95;;;1.30;;
13269;SDS011;6703;51.994;7.570;2023-02-28T12:32:45;2.53;;;1.23;;
13269;SDS011;6703;51.994;7.570;2023-02-28T12:35:16;6.88;;;2.00;;
13269;SDS011;6703;51.994;7.570;2023-02-28T12:37:47;3.83;;;1.33;;
13269;SDS011;6703;51.994;7.570;2023-02-28T12:40:20;2.30;;;1.60;;
13269;SDS011;6703;51.994;7.570;2023-02-28T12:42:49;3.38;;;1.77;;
13269;SDS011;6703;51.994;7.570;2023-02-28T12:45:19;6.03;;;1.83;;
13269;SDS011;6703;51.994;7.570;2023-02-28T12:47:49;5.07;;;1.88;;
13269;SDS011;6703;51.994;7.570;2023-02-28T12:50:18;2.85;;;1.77;;
13269;SDS011;6703;51.994;7.570;2023-02-28T12:52:49;3.30;;;1.70;;
13269;SDS011;6703;51.994;7.570;2023-02-28T12:55:21;2.55;;;1.60;;
13269;SDS011;6703;51.994;7.570;2023-02-28T12:57:55;7.25;;;1.83;;
13269;SDS011;6703;51.994;7.570;2023-02-28T13:00:30;5.38;;;1.58;;
13269;SDS011;6703;51.994;7.570;2023-02-28T13:03:07;3.90;;;1.67;;
13269;SDS011;6703;51.994;7.570;2023-02-28T13:05:55;5.53;;;1.90;;
13269;SDS011;6703;51.994;7.570;2023-02-28T13:08:36;3.90;;;1.60;;
13269;SDS011;6703;51.994;7.570;2023-02-28T13:11:24;4.32;;;1.50;;
13269;SDS011;6703;51.994;7.570;2023-02-28T13:13:57;3.30;;;1.50;;
13269;SDS011;6703;51.994;7.570;2023-02-28T13:16:26;3.43;;;1.70;;
13269;SDS011;6703;51.994;7.570;2023-02-28T13:18:57;3.63;;;1.48;;
13269;SDS011;6703;51.994;7.570;2023-02-28T13:21:41;3.70;;;1.50;;
13269;SDS011;6703;51.994;7.570;2023-02-28T13:24:11;4.95;;;2.00;;
13269;SDS011;6703;51.994;7.570;2023-02-28T13:33:24;11.43;;;4.47;;
13269;SDS011;6703;51.994;7.570;2023-02-28T13:36:00;4.35;;;1.52;;
13269;SDS011;6703;51.994;7.570;2023-02-28T13:38:39;2.75;;;1.50;;
13269;SDS011;6703;51.994;7.570;2023-02-28T13:44:13;4.03;;;1.60;;
13269;SDS011;6703;51.994;7.570;2023-02-28T13:49:52;4.95;;;1.70;;
13269;SDS011;6703;51.994;7.570;2023-02-28T13:52:23;4.93;;;2.03;;
13269;SDS011;6703;51.994;7.570;2023-02-28T13:55:00;3.47;;;1.60;;
13269;SDS011;6703;51.994;7.570;2023-02-28T13:57:44;2.80;;;1.30;;
13269;SDS011;6703;51.994;7.570;2023-02-28T14:00:27;2.50;;;1.25;;
13269;SDS011;6703;51.994;7.570;2023-02-28T14:03:06;3.10;;;1.40;;
13269;SDS011;6703;51.994;7.570;2023-02-28T14:05:39;2.67;;;1.40;;
13269;SDS011;6703;51.994;7.570;2023-02-28T14:08:08;3.63;;;1.30;;
13269;SDS011;6703;51.994;7.570;2023-02-28T14:10:42;3.60;;;1.45;;
13269;SDS011;6703;51.994;7.570;2023-02-28T14:13:13;2.75;;;1.25;;
13269;SDS011;6703;51.994;7.570;2023-02-28T14:15:58;5.63;;;1.48;;
13269;SDS011;6703;51.994;7.570;2023-02-28T14:18:29;2.47;;;1.23;;
13269;SDS011;6703;51.994;7.570;2023-02-28T14:21:04;2.90;;;1.20;;
13269;SDS011;6703;51.994;7.570;2023-02-28T14:26:49;3.35;;;1.30;;
13269;SDS011;6703;51.994;7.570;2023-02-28T14:29:29;3.33;;;1.30;;
13269;SDS011;6703;51.994;7.570;2023-02-28T14:32:03;4.00;;;1.50;;
13269;SDS011;6703;51.994;7.570;2023-02-28T14:34:38;4.50;;;1.60;;
13269;SDS011;6703;51.994;7.570;2023-02-28T14:37:10;5.67;;;2.00;;
13269;SDS011;6703;51.994;7.570;2023-02-28T14:39:43;3.13;;;1.80;;
13269;SDS011;6703;51.994;7.570;2023-02-28T14:42:30;3.25;;;1.63;;
13269;SDS011;6703;51.994;7.570;2023-02-28T14:45:00;5.30;;;1.92;;
13269;SDS011;6703;51.994;7.570;2023-02-28T14:47:30;3.28;;;1.73;;
13269;SDS011;6703;51.994;7.570;2023-02-28T14:49:59;4.07;;;1.75;;
13269;SDS011;6703;51.994;7.570;2023-02-28T14:52:30;5.10;;;2.03;;
13269;SDS011;6703;51.994;7.570;2023-02-28T14:54:59;4.60;;;1.90;;
13269;SDS011;6703;51.994;7.570;2023-02-28T14:57:29;3.35;;;1.70;;
13269;SDS011;6703;51.994;7.570;2023-02-28T14:59:59;5.40;;;1.73;;
13269;SDS011;6703;51.994;7.570;2023-02-28T15:02:33;3.05;;;1.30;;
13269;SDS011;6703;51.994;7.570;2023-02-28T15:05:09;3.15;;;1.80;;
13269;SDS011;6703;51.994;7.570;2023-02-28T15:07:47;3.75;;;1.63;;
13269;SDS011;6703;51.994;7.570;2023-02-28T15:10:17;2.70;;;1.60;;
13269;SDS011;6703;51.994;7.570;2023-02-28T15:12:48;3.35;;;1.83;;
13269;SDS011;6703;51.994;7.570;2023-02-28T15:15:20;2.72;;;1.48;;
13269;SDS011;6703;51.994;7.570;2023-02-28T15:18:06;3.60;;;1.83;;
13269;SDS011;6703;51.994;7.570;2023-02-28T15:20:35;4.90;;;1.50;;
13269;SDS011;6703;51.994;7.570;2023-02-28T15:23:06;5.32;;;1.50;;
13269;SDS011;6703;51.994;7.570;2023-02-28T15:25:34;5.00;;;1.50;;
13269;SDS011;6703;51.994;7.570;2023-02-28T15:28:02;3.90;;;1.60;;
13269;SDS011;6703;51.994;7.570;2023-02-28T15:30:30;2.65;;;1.63;;
13269;SDS011;6703;51.994;7.570;2023-02-28T15:33:03;3.57;;;1.30;;